sensor_id;sensor_type;location;lat;lon;timestamp;P1;durP1;ratioP1;P2;durP2;ratioP2
42802;SDS011;28447;48.682;9.022;2023-08-21T04:02:36;14.70;;;13.00;;
42802;SDS011;28447;48.682;9.022;2023-08-21T04:05:02;13.30;;;11.90;;
42802;SDS011;28447;48.682;9.022;2023-08-21T04:07:27;14.40;;;12.60;;
42802;SDS011;28447;48.682;9.022;2023-08-21T04:09:53;12.37;;;11.17;;
42802;SDS011;28447;48.682;9.022;2023-08-21T04:12:19;13.10;;;11.80;;
42802;SDS011;28447;48.682;9.022;2023-08-21T04:14:44;14.70;;;11.30;;
42802;SDS011;28447;48.682;9.022;2023-08-21T04:17:10;13.43;;;12.13;;
42802;SDS011;28447;48.682;9.022;2023-08-21T04:19:35;13.67;;;10.83;;
42802;SDS011;28447;48.682;9.022;2023-08-21T04:22:01;12.03;;;10.93;;
42802;SDS011;28447;48.682;9.022;2023-08-21T04:24:27;14.37;;;11.90;;
42802;SDS011;28447;48.682;9.022;2023-08-21T04:26:52;13.30;;;12.10;;
42802;SDS011;28447;48.682;9.022;2023-08-21T04:29:18;17.47;;;12.40;;
42802;SDS011;28447;48.682;9.022;2023-08-21T04:31:44;13.40;;;12.00;;
42802;SDS011;28447;48.682;9.022;2023-08-21T04:34:09;14.67;;;13.10;;
42802;SDS011;28447;48.682;9.022;2023-08-21T04:36:35;14.53;;;12.33;;
42802;SDS011;28447;48.682;9.022;2023-08-21T04:39:00;13.47;;;11.93;;
42802;SDS011;28447;48.682;9.022;2023-08-21T04:41:26;13.07;;;11.73;;
42802;SDS011;28447;48.682;9.022;2023-08-21T04:43:51;15.17;;;12.00;;
42802;SDS011;28447;48.682;9.022;2023-08-21T04:46:17;13.50;;;11.60;;
42802;SDS011;28447;48.682;9.022;2023-08-21T04:48:44;13.17;;;11.80;;
42802;SDS011;28447;48.682;9.022;2023-08-21T04:51:10;15.33;;;12.07;;
42802;SDS011;28447;48.682;9.022;2023-08-21T04:53:36;14.87;;;11.97;;
42802;SDS011;28447;48.682;9.022;2023-08-21T04:56:01;12.90;;;11.53;;
42802;SDS011;28447;48.682;9.022;2023-08-21T04:58:28;12.90;;;11.60;;
42802;SDS011;28447;48.682;9.022;2023-08-21T05:00:54;13.17;;;11.80;;
42802;SDS011;28447;48.682;9.022;2023-08-21T05:03:19;13.93;;;12.13;;
42802;SDS011;28447;48.682;9.022;2023-08-21T05:05:52;16.07;;;11.93;;
42802;SDS011;28447;48.682;9.022;2023-08-21T05:08:19;14.13;;;12.30;;
42802;SDS011;28447;48.682;9.022;2023-08-21T05:10:45;14.33;;;12.83;;
42802;SDS011;28447;48.682;9.022;2023-08-21T05:13:11;14.00;;;11.30;;
42802;SDS011;28447;48.682;9.022;2023-08-21T05:15:40;12.70;;;11.40;;
42802;SDS011;28447;48.682;9.022;2023-08-21T05:18:06;13.77;;;11.77;;
42802;SDS011;28447;48.682;9.022;2023-08-21T05:20:32;13.70;;;12.07;;
42802;SDS011;28447;48.682;9.022;2023-08-21T05:22:58;18.20;;;11.93;;
42802;SDS011;28447;48.682;9.022;2023-08-21T05:25:23;14.70;;;11.30;;
42802;SDS011;28447;48.682;9.022;2023-08-21T05:27:49;15.40;;;12.90;;
42802;SDS011;28447;48.682;9.022;2023-08-21T05:30:15;14.83;;;11.67;;
42802;SDS011;28447;48.682;9.022;2023-08-21T05:32:42;15.00;;;12.00;;
42802;SDS011;28447;48.682;9.022;2023-08-21T05:35:08;12.33;;;10.90;;
42802;SDS011;28447;48.682;9.022;2023-08-21T05:37:34;20.17;;;11.57;;
42802;SDS011;28447;48.682;9.022;2023-08-21T05:40:00;12.60;;;11.10;;
42802;SDS011;28447;48.682;9.022;2023-08-21T05:42:27;13.33;;;11.53;;
42802;SDS011;28447;48.682;9.022;2023-08-21T05:44:53;12.93;;;11.53;;
42802;SDS011;28447;48.682;9.022;2023-08-21T05:47:19;18.67;;;11.63;;
42802;SDS011;28447;48.682;9.022;2023-08-21T05:49:45;14.00;;;12.40;;
42802;SDS011;28447;48.682;9.022;2023-08-21T05:52:12;17.20;;;11.53;;
42802;SDS011;28447;48.682;9.022;2023-08-21T05:54:38;23.43;;;11.87;;
42802;SDS011;28447;48.682;9.022;2023-08-21T05:57:04;12.47;;;10.90;;
42802;SDS011;28447;48.682;9.022;2023-08-21T05:59:31;13.53;;;10.83;;
42802;SDS011;28447;48.682;9.022;2023-08-21T06:01:57;14.93;;;10.13;;
42802;SDS011;28447;48.682;9.022;2023-08-21T06:04:23;14.43;;;11.83;;
42802;SDS011;28447;48.682;9.022;2023-08-21T06:06:49;12.73;;;11.43;;
42802;SDS011;28447;48.682;9.022;2023-08-21T06:09:15;14.97;;;10.60;;
42802;SDS011;28447;48.682;9.022;2023-08-21T06:11:42;11.47;;;10.27;;
42802;SDS011;28447;48.682;9.022;2023-08-21T06:14:08;12.03;;;10.83;;
42802;SDS011;28447;48.682;9.022;2023-08-21T06:16:34;14.80;;;10.00;;
42802;SDS011;28447;48.682;9.022;2023-08-21T06:19:00;11.53;;;10.40;;
42802;SDS011;28447;48.682;9.022;2023-08-21T06:21:26;13.63;;;10.90;;
42802;SDS011;28447;48.682;9.022;2023-08-21T06:23:52;12.80;;;11.50;;
42802;SDS011;28447;48.682;9.022;2023-08-21T06:26:18;11.60;;;10.40;;
42802;SDS011;28447;48.682;9.022;2023-08-21T06:28:44;13.97;;;12.00;;
42802;SDS011;28447;48.682;9.022;2023-08-21T06:31:10;12.80;;;11.40;;
42802;SDS011;28447;48.682;9.022;2023-08-21T06:33:36;14.73;;;11.27;;
42802;SDS011;28447;48.682;9.022;2023-08-21T06:36:02;11.60;;;10.40;;
42802;SDS011;28447;48.682;9.022;2023-08-21T06:38:28;16.13;;;10.40;;
42802;SDS011;28447;48.682;9.022;2023-08-21T06:40:54;11.30;;;10.10;;
42802;SDS011;28447;48.682;9.022;2023-08-21T06:43:20;13.77;;;9.85;;
42802;SDS011;28447;48.682;9.022;2023-08-21T06:45:46;12.00;;;10.65;;
42802;SDS011;28447;48.682;9.022;2023-08-21T06:48:12;12.25;;;10.63;;
42802;SDS011;28447;48.682;9.022;2023-08-21T06:50:38;14.02;;;10.70;;
42802;SDS011;28447;48.682;9.022;2023-08-21T06:53:04;12.60;;;11.07;;
42802;SDS011;28447;48.682;9.022;2023-08-21T06:55:31;14.55;;;11.25;;
42802;SDS011;28447;48.682;9.022;2023-08-21T06:57:57;14.75;;;10.18;;
42802;SDS011;28447;48.682;9.022;2023-08-21T07:00:23;12.40;;;10.70;;
42802;SDS011;28447;48.682;9.022;2023-08-21T07:02:49;12.30;;;9.88;;
42802;SDS011;28447;48.682;9.022;2023-08-21T07:05:15;10.50;;;9.50;;
42802;SDS011;28447;48.682;9.022;2023-08-21T07:07:41;10.98;;;9.73;;
42802;SDS011;28447;48.682;9.022;2023-08-21T07:10:07;12.98;;;10.23;;
42802;SDS011;28447;48.682;9.022;2023-08-21T07:12:33;12.82;;;10.10;;
42802;SDS011;28447;48.682;9.022;2023-08-21T07:14:59;12.35;;;10.13;;
42802;SDS011;28447;48.682;9.022;2023-08-21T07:17:25;12.85;;;10.98;;
42802;SDS011;28447;48.682;9.022;2023-08-21T07:19:51;14.90;;;10.25;;
42802;SDS011;28447;48.682;9.022;2023-08-21T07:22:18;12.85;;;10.88;;
42802;SDS011;28447;48.682;9.022;2023-08-21T07:24:44;15.40;;;10.18;;
42802;SDS011;28447;48.682;9.022;2023-08-21T07:27:10;15.32;;;10.27;;
42802;SDS011;28447;48.682;9.022;2023-08-21T07:29:36;15.45;;;10.40;;
42802;SDS011;28447;48.682;9.022;2023-08-21T07:32:02;15.40;;;10.60;;
42802;SDS011;28447;48.682;9.022;2023-08-21T07:34:28;13.68;;;10.70;;
42802;SDS011;28447;48.682;9.022;2023-08-21T07:36:54;15.07;;;10.15;;
42802;SDS011;28447;48.682;9.022;2023-08-21T07:39:20;15.55;;;10.32;;
42802;SDS011;28447;48.682;9.022;2023-08-21T07:41:46;13.23;;;10.52;;
42802;SDS011;28447;48.682;9.022;2023-08-21T07:44:12;11.55;;;10.23;;
42802;SDS011;28447;48.682;9.022;2023-08-21T07:46:38;12.07;;;10.45;;
42802;SDS011;28447;48.682;9.022;2023-08-21T07:49:04;11.50;;;10.40;;
42802;SDS011;28447;48.682;9.022;2023-08-21T07:51:30;16.70;;;10.82;;
42802;SDS011;28447;48.682;9.022;2023-08-21T07:53:56;10.65;;;9.45;;
42802;SDS011;28447;48.682;9.022;2023-08-21T07:56:22;14.95;;;10.35;;
42802;SDS011;28447;48.682;9.022;2023-08-21T07:58:48;16.00;;;11.68;;
42802;SDS011;28447;48.682;9.022;2023-08-21T08:01:14;14.00;;;11.30;;
42802;SDS011;28447;48.682;9.022;2023-08-21T08:03:40;15.50;;;11.00;;
42802;SDS011;28447;48.682;9.022;2023-08-21T08:06:06;14.52;;;10.93;;
42802;SDS011;28447;48.682;9.022;2023-08-21T08:08:32;11.30;;;9.70;;
42802;SDS011;28447;48.682;9.022;2023-08-21T08:11:02;10.73;;;9.52;;
42802;SDS011;28447;48.682;9.022;2023-08-21T08:13:29;13.38;;;10.60;;
42802;SDS011;28447;48.682;9.022;2023-08-21T08:15:55;10.60;;;9.35;;
42802;SDS011;28447;48.682;9.022;2023-08-21T08:18:21;11.65;;;9.63;;
42802;SDS011;28447;48.682;9.022;2023-08-21T08:20:47;15.88;;;9.05;;
42802;SDS011;28447;48.682;9.022;2023-08-21T08:23:13;10.85;;;9.80;;
42802;SDS011;28447;48.682;9.022;2023-08-21T08:25:39;10.48;;;9.40;;
42802;SDS011;28447;48.682;9.022;2023-08-21T08:28:05;10.35;;;9.30;;
42802;SDS011;28447;48.682;9.022;2023-08-21T08:30:31;13.20;;;8.75;;
42802;SDS011;28447;48.682;9.022;2023-08-21T08:32:57;10.88;;;9.85;;
42802;SDS011;28447;48.682;9.022;2023-08-21T08:35:23;12.43;;;8.68;;
42802;SDS011;28447;48.682;9.022;2023-08-21T08:37:49;8.98;;;8.15;;
42802;SDS011;28447;48.682;9.022;2023-08-21T08:40:15;9.18;;;8.38;;
42802;SDS011;28447;48.682;9.022;2023-08-21T08:42:41;10.25;;;9.20;;
42802;SDS011;28447;48.682;9.022;2023-08-21T08:45:07;8.77;;;7.93;;
42802;SDS011;28447;48.682;9.022;2023-08-21T08:47:34;10.02;;;8.63;;
42802;SDS011;28447;48.682;9.022;2023-08-21T08:50:04;8.48;;;7.68;;
42802;SDS011;28447;48.682;9.022;2023-08-21T08:52:31;7.38;;;6.15;;
42802;SDS011;28447;48.682;9.022;2023-08-21T08:55:00;8.18;;;6.85;;
42802;SDS011;28447;48.682;9.022;2023-08-21T08:57:27;7.10;;;6.47;;
42802;SDS011;28447;48.682;9.022;2023-08-21T08:59:53;7.15;;;6.50;;
42802;SDS011;28447;48.682;9.022;2023-08-21T09:02:19;7.22;;;6.53;;
42802;SDS011;28447;48.682;9.022;2023-08-21T09:04:45;7.38;;;6.68;;
42802;SDS011;28447;48.682;9.022;2023-08-21T09:07:11;6.65;;;6.03;;
42802;SDS011;28447;48.682;9.022;2023-08-21T09:09:41;7.93;;;6.95;;
42802;SDS011;28447;48.682;9.022;2023-08-21T09:12:10;8.00;;;7.20;;
42802;SDS011;28447;48.682;9.022;2023-08-21T09:14:40;7.97;;;7.15;;
42802;SDS011;28447;48.682;9.022;2023-08-21T09:17:06;8.30;;;7.15;;
42802;SDS011;28447;48.682;9.022;2023-08-21T09:19:32;8.55;;;7.43;;
42802;SDS011;28447;48.682;9.022;2023-08-21T09:21:59;7.40;;;6.78;;
42802;SDS011;28447;48.682;9.022;2023-08-21T09:24:25;8.52;;;7.72;;
42802;SDS011;28447;48.682;9.022;2023-08-21T09:26:51;8.55;;;7.47;;
42802;SDS011;28447;48.682;9.022;2023-08-21T09:29:17;8.50;;;7.50;;
42802;SDS011;28447;48.682;9.022;2023-08-21T09:31:43;7.65;;;6.88;;
42802;SDS011;28447;48.682;9.022;2023-08-21T09:34:10;9.52;;;7.30;;
42802;SDS011;28447;48.682;9.022;2023-08-21T09:36:37;8.10;;;7.32;;
42802;SDS011;28447;48.682;9.022;2023-08-21T09:39:07;10.43;;;7.90;;
42802;SDS011;28447;48.682;9.022;2023-08-21T09:41:41;9.13;;;8.32;;
42802;SDS011;28447;48.682;9.022;2023-08-21T09:44:07;10.30;;;8.65;;
42802;SDS011;28447;48.682;9.022;2023-08-21T09:46:33;8.05;;;7.32;;
42802;SDS011;28447;48.682;9.022;2023-08-21T09:48:59;9.05;;;7.90;;
42802;SDS011;28447;48.682;9.022;2023-08-21T09:51:28;9.52;;;8.18;;
42802;SDS011;28447;48.682;9.022;2023-08-21T09:53:54;9.10;;;7.75;;
42802;SDS011;28447;48.682;9.022;2023-08-21T09:56:21;8.35;;;7.65;;
42802;SDS011;28447;48.682;9.022;2023-08-21T09:58:48;9.07;;;7.40;;
42802;SDS011;28447;48.682;9.022;2023-08-21T10:01:16;8.50;;;7.75;;
42802;SDS011;28447;48.682;9.022;2023-08-21T10:03:43;8.30;;;7.57;;
42802;SDS011;28447;48.682;9.022;2023-08-21T10:06:12;8.40;;;7.40;;
42802;SDS011;28447;48.682;9.022;2023-08-21T10:08:41;8.68;;;7.55;;
42802;SDS011;28447;48.682;9.022;2023-08-21T10:11:08;9.98;;;8.15;;
42802;SDS011;28447;48.682;9.022;2023-08-21T10:13:35;7.78;;;7.07;;
42802;SDS011;28447;48.682;9.022;2023-08-21T10:16:02;9.88;;;8.10;;
42802;SDS011;28447;48.682;9.022;2023-08-21T10:18:32;8.25;;;7.47;;
42802;SDS011;28447;48.682;9.022;2023-08-21T10:23:37;8.80;;;8.10;;
42802;SDS011;28447;48.682;9.022;2023-08-21T10:26:05;8.70;;;7.78;;
42802;SDS011;28447;48.682;9.022;2023-08-21T10:33:54;9.10;;;8.20;;
42802;SDS011;28447;48.682;9.022;2023-08-21T10:39:14;9.20;;;8.30;;
42802;SDS011;28447;48.682;9.022;2023-08-21T10:41:42;9.15;;;8.20;;
42802;SDS011;28447;48.682;9.022;2023-08-21T10:44:27;8.63;;;7.57;;
42802;SDS011;28447;48.682;9.022;2023-08-21T10:49:44;8.80;;;7.95;;
42802;SDS011;28447;48.682;9.022;2023-08-21T10:52:10;8.95;;;6.70;;
42802;SDS011;28447;48.682;9.022;2023-08-21T10:54:43;9.85;;;8.90;;
42802;SDS011;28447;48.682;9.022;2023-08-21T10:57:09;9.18;;;8.38;;
42802;SDS011;28447;48.682;9.022;2023-08-21T10:59:35;11.02;;;8.57;;
42802;SDS011;28447;48.682;9.022;2023-08-21T11:02:01;8.73;;;7.85;;
42802;SDS011;28447;48.682;9.022;2023-08-21T11:04:28;9.55;;;8.48;;
42802;SDS011;28447;48.682;9.022;2023-08-21T11:06:54;9.57;;;8.50;;
42802;SDS011;28447;48.682;9.022;2023-08-21T11:09:22;9.98;;;8.80;;
42802;SDS011;28447;48.682;9.022;2023-08-21T11:11:48;10.50;;;9.60;;
42802;SDS011;28447;48.682;9.022;2023-08-21T11:14:13;9.85;;;8.85;;
42802;SDS011;28447;48.682;9.022;2023-08-21T11:16:39;10.82;;;9.32;;
42802;SDS011;28447;48.682;9.022;2023-08-21T11:19:06;10.20;;;8.75;;
42802;SDS011;28447;48.682;9.022;2023-08-21T11:21:32;9.50;;;8.70;;
42802;SDS011;28447;48.682;9.022;2023-08-21T11:23:58;9.13;;;8.23;;
42802;SDS011;28447;48.682;9.022;2023-08-21T11:26:24;9.95;;;8.98;;
42802;SDS011;28447;48.682;9.022;2023-08-21T11:28:50;10.38;;;9.27;;
42802;SDS011;28447;48.682;9.022;2023-08-21T11:31:17;9.70;;;8.80;;
42802;SDS011;28447;48.682;9.022;2023-08-21T11:33:49;9.55;;;8.63;;
42802;SDS011;28447;48.682;9.022;2023-08-21T11:36:15;9.30;;;8.40;;
42802;SDS011;28447;48.682;9.022;2023-08-21T11:38:41;9.05;;;8.15;;
42802;SDS011;28447;48.682;9.022;2023-08-21T11:41:07;11.00;;;7.78;;
42802;SDS011;28447;48.682;9.022;2023-08-21T11:43:42;8.15;;;7.43;;
42802;SDS011;28447;48.682;9.022;2023-08-21T11:46:08;12.43;;;8.27;;
42802;SDS011;28447;48.682;9.022;2023-08-21T11:48:38;9.10;;;7.95;;
42802;SDS011;28447;48.682;9.022;2023-08-21T11:51:05;9.25;;;8.45;;
42802;SDS011;28447;48.682;9.022;2023-08-21T11:53:35;9.15;;;8.25;;
42802;SDS011;28447;48.682;9.022;2023-08-21T11:56:02;9.32;;;8.52;;
42802;SDS011;28447;48.682;9.022;2023-08-21T11:58:28;9.52;;;8.73;;
42802;SDS011;28447;48.682;9.022;2023-08-21T12:00:54;9.00;;;8.10;;
42802;SDS011;28447;48.682;9.022;2023-08-21T12:03:20;9.55;;;8.48;;
42802;SDS011;28447;48.682;9.022;2023-08-21T12:05:46;12.05;;;8.43;;
42802;SDS011;28447;48.682;9.022;2023-08-21T12:08:12;9.95;;;8.32;;
42802;SDS011;28447;48.682;9.022;2023-08-21T12:10:38;9.70;;;8.70;;
42802;SDS011;28447;48.682;9.022;2023-08-21T12:13:04;9.68;;;8.23;;
42802;SDS011;28447;48.682;9.022;2023-08-21T12:15:30;9.75;;;8.80;;
42802;SDS011;28447;48.682;9.022;2023-08-21T12:17:56;9.52;;;8.38;;
42802;SDS011;28447;48.682;9.022;2023-08-21T12:20:22;10.68;;;9.63;;
42802;SDS011;28447;48.682;9.022;2023-08-21T12:22:48;9.30;;;8.43;;
42802;SDS011;28447;48.682;9.022;2023-08-21T12:25:14;9.68;;;8.77;;
42802;SDS011;28447;48.682;9.022;2023-08-21T12:27:41;10.40;;;8.60;;
42802;SDS011;28447;48.682;9.022;2023-08-21T12:30:07;9.82;;;8.85;;
42802;SDS011;28447;48.682;9.022;2023-08-21T12:32:33;8.52;;;7.82;;
42802;SDS011;28447;48.682;9.022;2023-08-21T12:34:59;9.38;;;8.43;;
42802;SDS011;28447;48.682;9.022;2023-08-21T12:37:25;8.57;;;7.88;;
42802;SDS011;28447;48.682;9.022;2023-08-21T12:39:53;10.52;;;8.95;;
42802;SDS011;28447;48.682;9.022;2023-08-21T12:42:19;10.00;;;9.10;;
42802;SDS011;28447;48.682;9.022;2023-08-21T12:44:45;8.85;;;8.05;;
42802;SDS011;28447;48.682;9.022;2023-08-21T12:47:11;9.65;;;8.70;;
42802;SDS011;28447;48.682;9.022;2023-08-21T12:49:37;8.80;;;8.05;;
42802;SDS011;28447;48.682;9.022;2023-08-21T12:52:04;10.10;;;8.52;;
42802;SDS011;28447;48.682;9.022;2023-08-21T12:54:31;8.40;;;7.70;;
42802;SDS011;28447;48.682;9.022;2023-08-21T12:56:57;9.02;;;8.13;;
42802;SDS011;28447;48.682;9.022;2023-08-21T12:59:23;9.85;;;8.80;;
42802;SDS011;28447;48.682;9.022;2023-08-21T13:01:49;10.30;;;7.88;;
42802;SDS011;28447;48.682;9.022;2023-08-21T13:04:15;8.77;;;7.97;;
42802;SDS011;28447;48.682;9.022;2023-08-21T13:06:42;14.32;;;8.82;;
42802;SDS011;28447;48.682;9.022;2023-08-21T13:09:08;9.02;;;8.13;;
42802;SDS011;28447;48.682;9.022;2023-08-21T13:11:34;8.88;;;8.07;;
42802;SDS011;28447;48.682;9.022;2023-08-21T13:14:00;11.65;;;8.43;;
42802;SDS011;28447;48.682;9.022;2023-08-21T13:16:26;9.05;;;8.15;;
42802;SDS011;28447;48.682;9.022;2023-08-21T13:18:52;8.77;;;7.88;;
42802;SDS011;28447;48.682;9.022;2023-08-21T13:21:18;10.65;;;8.05;;
42802;SDS011;28447;48.682;9.022;2023-08-21T13:23:44;9.02;;;8.23;;
42802;SDS011;28447;48.682;9.022;2023-08-21T13:26:10;11.30;;;7.53;;
42802;SDS011;28447;48.682;9.022;2023-08-21T13:28:36;9.30;;;8.27;;
42802;SDS011;28447;48.682;9.022;2023-08-21T13:31:02;10.63;;;7.88;;
42802;SDS011;28447;48.682;9.022;2023-08-21T13:33:28;9.02;;;8.10;;
42802;SDS011;28447;48.682;9.022;2023-08-21T13:35:55;9.18;;;8.20;;
42802;SDS011;28447;48.682;9.022;2023-08-21T13:38:21;9.15;;;8.18;;
42802;SDS011;28447;48.682;9.022;2023-08-21T13:40:47;9.32;;;8.63;;
42802;SDS011;28447;48.682;9.022;2023-08-21T13:43:13;9.05;;;8.18;;
42802;SDS011;28447;48.682;9.022;2023-08-21T13:45:39;9.57;;;8.68;;
42802;SDS011;28447;48.682;9.022;2023-08-21T13:48:05;8.73;;;7.93;;
42802;SDS011;28447;48.682;9.022;2023-08-21T13:50:32;8.75;;;8.05;;
42802;SDS011;28447;48.682;9.022;2023-08-21T13:52:58;9.38;;;8.45;;
42802;SDS011;28447;48.682;9.022;2023-08-21T13:55:24;10.68;;;8.38;;
42802;SDS011;28447;48.682;9.022;2023-08-21T13:57:50;12.48;;;8.10;;
42802;SDS011;28447;48.682;9.022;2023-08-21T14:00:16;8.45;;;7.75;;
42802;SDS011;28447;48.682;9.022;2023-08-21T14:02:42;8.80;;;7.88;;
42802;SDS011;28447;48.682;9.022;2023-08-21T14:05:09;9.18;;;7.80;;
42802;SDS011;28447;48.682;9.022;2023-08-21T14:07:35;8.85;;;8.02;;
42802;SDS011;28447;48.682;9.022;2023-08-21T14:10:02;8.88;;;8.00;;
42802;SDS011;28447;48.682;9.022;2023-08-21T14:12:30;9.05;;;8.15;;
42802;SDS011;28447;48.682;9.022;2023-08-21T14:14:56;9.73;;;8.27;;
42802;SDS011;28447;48.682;9.022;2023-08-21T14:17:22;9.65;;;8.57;;
42802;SDS011;28447;48.682;9.022;2023-08-21T14:19:48;9.30;;;8.13;;
42802;SDS011;28447;48.682;9.022;2023-08-21T14:22:15;10.75;;;8.18;;
42802;SDS011;28447;48.682;9.022;2023-08-21T14:24:41;9.32;;;8.43;;
42802;SDS011;28447;48.682;9.022;2023-08-21T14:27:07;9.70;;;7.78;;
42802;SDS011;28447;48.682;9.022;2023-08-21T14:29:33;8.85;;;8.00;;
42802;SDS011;28447;48.682;9.022;2023-08-21T14:31:59;9.68;;;8.88;;
42802;SDS011;28447;48.682;9.022;2023-08-21T14:34:25;9.52;;;7.97;;
42802;SDS011;28447;48.682;9.022;2023-08-21T14:36:53;8.40;;;7.50;;
42802;SDS011;28447;48.682;9.022;2023-08-21T14:39:23;8.98;;;8.07;;
42802;SDS011;28447;48.682;9.022;2023-08-21T14:41:56;9.52;;;7.80;;
42802;SDS011;28447;48.682;9.022;2023-08-21T14:44:22;9.85;;;7.72;;
42802;SDS011;28447;48.682;9.022;2023-08-21T14:46:48;8.27;;;7.45;;
42802;SDS011;28447;48.682;9.022;2023-08-21T14:49:14;10.32;;;7.72;;
42802;SDS011;28447;48.682;9.022;2023-08-21T14:51:40;8.65;;;7.80;;
42802;SDS011;28447;48.682;9.022;2023-08-21T14:54:06;11.65;;;8.13;;
42802;SDS011;28447;48.682;9.022;2023-08-21T14:56:32;9.05;;;8.15;;
42802;SDS011;28447;48.682;9.022;2023-08-21T14:58:59;8.82;;;7.97;;
42802;SDS011;28447;48.682;9.022;2023-08-21T15:01:25;8.52;;;7.80;;
42802;SDS011;28447;48.682;9.022;2023-08-21T15:03:51;9.13;;;8.25;;
42802;SDS011;28447;48.682;9.022;2023-08-21T15:06:17;8.70;;;8.00;;
42802;SDS011;28447;48.682;9.022;2023-08-21T15:08:43;8.02;;;7.28;;
42802;SDS011;28447;48.682;9.022;2023-08-21T15:11:09;8.23;;;7.63;;
42802;SDS011;28447;48.682;9.022;2023-08-21T15:13:36;8.38;;;7.60;;
42802;SDS011;28447;48.682;9.022;2023-08-21T15:16:03;8.20;;;7.40;;
42802;SDS011;28447;48.682;9.022;2023-08-21T15:18:29;10.70;;;8.20;;
42802;SDS011;28447;48.682;9.022;2023-08-21T15:20:55;8.90;;;7.80;;
42802;SDS011;28447;48.682;9.022;2023-08-21T15:23:21;8.07;;;7.40;;
42802;SDS011;28447;48.682;9.022;2023-08-21T15:25:47;8.40;;;7.60;;
42802;SDS011;28447;48.682;9.022;2023-08-21T15:28:13;8.80;;;7.55;;
42802;SDS011;28447;48.682;9.022;2023-08-21T15:30:39;8.60;;;7.80;;
42802;SDS011;28447;48.682;9.022;2023-08-21T15:33:05;8.57;;;7.65;;
42802;SDS011;28447;48.682;9.022;2023-08-21T15:35:31;9.50;;;7.63;;
42802;SDS011;28447;48.682;9.022;2023-08-21T15:37:57;8.40;;;7.70;;
42802;SDS011;28447;48.682;9.022;2023-08-21T15:40:23;8.30;;;7.60;;
42802;SDS011;28447;48.682;9.022;2023-08-21T15:42:49;9.55;;;8.18;;
42802;SDS011;28447;48.682;9.022;2023-08-21T15:45:15;7.80;;;7.20;;
42802;SDS011;28447;48.682;9.022;2023-08-21T15:47:41;8.38;;;7.60;;
42802;SDS011;28447;48.682;9.022;2023-08-21T15:50:07;8.48;;;7.68;;
42802;SDS011;28447;48.682;9.022;2023-08-21T15:52:34;9.13;;;7.60;;
42802;SDS011;28447;48.682;9.022;2023-08-21T15:55:00;8.20;;;7.47;;
42802;SDS011;28447;48.682;9.022;2023-08-21T15:57:26;8.20;;;7.60;;
42802;SDS011;28447;48.682;9.022;2023-08-21T15:59:52;8.38;;;7.50;;
42802;SDS011;28447;48.682;9.022;2023-08-21T16:02:18;8.52;;;7.80;;
42802;SDS011;28447;48.682;9.022;2023-08-21T16:04:44;9.35;;;8.00;;
42802;SDS011;28447;48.682;9.022;2023-08-21T16:07:10;8.05;;;7.35;;
42802;SDS011;28447;48.682;9.022;2023-08-21T16:09:36;9.43;;;7.28;;
42802;SDS011;28447;48.682;9.022;2023-08-21T16:12:02;8.20;;;7.60;;
42802;SDS011;28447;48.682;9.022;2023-08-21T16:14:28;9.57;;;6.88;;
42802;SDS011;28447;48.682;9.022;2023-08-21T16:16:54;8.18;;;7.38;;
42802;SDS011;28447;48.682;9.022;2023-08-21T16:19:21;7.70;;;7.10;;
42802;SDS011;28447;48.682;9.022;2023-08-21T16:21:47;9.43;;;7.53;;
42802;SDS011;28447;48.682;9.022;2023-08-21T16:24:15;11.07;;;7.88;;
42802;SDS011;28447;48.682;9.022;2023-08-21T16:26:40;9.48;;;7.82;;
42802;SDS011;28447;48.682;9.022;2023-08-21T16:29:06;11.82;;;8.23;;
42802;SDS011;28447;48.682;9.022;2023-08-21T16:31:32;8.23;;;7.28;;
42802;SDS011;28447;48.682;9.022;2023-08-21T16:33:58;8.70;;;7.63;;
42802;SDS011;28447;48.682;9.022;2023-08-21T16:36:24;8.57;;;7.65;;
42802;SDS011;28447;48.682;9.022;2023-08-21T16:38:50;8.25;;;7.65;;
42802;SDS011;28447;48.682;9.022;2023-08-21T16:41:16;8.18;;;7.35;;
42802;SDS011;28447;48.682;9.022;2023-08-21T16:43:42;8.00;;;7.20;;
42802;SDS011;28447;48.682;9.022;2023-08-21T16:46:09;7.43;;;6.82;;
42802;SDS011;28447;48.682;9.022;2023-08-21T16:48:35;8.40;;;7.35;;
42802;SDS011;28447;48.682;9.022;2023-08-21T16:51:01;8.15;;;7.40;;
42802;SDS011;28447;48.682;9.022;2023-08-21T16:53:27;8.93;;;7.68;;
42802;SDS011;28447;48.682;9.022;2023-08-21T16:55:53;8.82;;;8.02;;
42802;SDS011;28447;48.682;9.022;2023-08-21T16:58:20;10.75;;;7.68;;
42802;SDS011;28447;48.682;9.022;2023-08-21T17:00:46;9.80;;;8.10;;
42802;SDS011;28447;48.682;9.022;2023-08-21T17:03:12;8.80;;;7.85;;
42802;SDS011;28447;48.682;9.022;2023-08-21T17:05:38;8.50;;;7.60;;
42802;SDS011;28447;48.682;9.022;2023-08-21T17:08:04;10.02;;;7.45;;
42802;SDS011;28447;48.682;9.022;2023-08-21T17:10:31;8.32;;;7.43;;
42802;SDS011;28447;48.682;9.022;2023-08-21T17:12:57;10.50;;;7.93;;
42802;SDS011;28447;48.682;9.022;2023-08-21T17:15:23;9.50;;;7.80;;
42802;SDS011;28447;48.682;9.022;2023-08-21T17:17:49;9.98;;;8.10;;
42802;SDS011;28447;48.682;9.022;2023-08-21T17:20:15;8.48;;;7.63;;
42802;SDS011;28447;48.682;9.022;2023-08-21T17:22:44;7.63;;;7.03;;
42802;SDS011;28447;48.682;9.022;2023-08-21T17:25:10;10.02;;;7.57;;
42802;SDS011;28447;48.682;9.022;2023-08-21T17:27:36;9.65;;;8.70;;
42802;SDS011;28447;48.682;9.022;2023-08-21T17:30:03;9.48;;;7.60;;
42802;SDS011;28447;48.682;9.022;2023-08-21T17:32:30;8.10;;;7.30;;
42802;SDS011;28447;48.682;9.022;2023-08-21T17:34:57;10.43;;;7.90;;
42802;SDS011;28447;48.682;9.022;2023-08-21T17:37:23;7.90;;;7.05;;
42802;SDS011;28447;48.682;9.022;2023-08-21T17:39:48;8.52;;;7.38;;
42802;SDS011;28447;48.682;9.022;2023-08-21T17:42:15;7.85;;;6.97;;
42802;SDS011;28447;48.682;9.022;2023-08-21T17:44:41;8.45;;;7.60;;
42802;SDS011;28447;48.682;9.022;2023-08-21T17:47:07;10.45;;;8.10;;
42802;SDS011;28447;48.682;9.022;2023-08-21T17:49:33;7.88;;;6.82;;
42802;SDS011;28447;48.682;9.022;2023-08-21T17:51:59;8.77;;;7.93;;
42802;SDS011;28447;48.682;9.022;2023-08-21T17:54:25;8.85;;;7.97;;
42802;SDS011;28447;48.682;9.022;2023-08-21T17:56:51;15.75;;;7.05;;
42802;SDS011;28447;48.682;9.022;2023-08-21T17:59:17;8.43;;;7.55;;
42802;SDS011;28447;48.682;9.022;2023-08-21T18:01:43;8.10;;;7.40;;
42802;SDS011;28447;48.682;9.022;2023-08-21T18:04:09;8.45;;;7.20;;
42802;SDS011;28447;48.682;9.022;2023-08-21T18:06:35;11.73;;;8.05;;
42802;SDS011;28447;48.682;9.022;2023-08-21T18:09:01;10.18;;;7.95;;
42802;SDS011;28447;48.682;9.022;2023-08-21T18:11:28;8.73;;;7.93;;
42802;SDS011;28447;48.682;9.022;2023-08-21T18:13:55;8.25;;;7.45;;
42802;SDS011;28447;48.682;9.022;2023-08-21T18:16:21;8.55;;;7.75;;
42802;SDS011;28447;48.682;9.022;2023-08-21T18:18:47;11.85;;;8.70;;
42802;SDS011;28447;48.682;9.022;2023-08-21T18:21:13;8.68;;;7.35;;
42802;SDS011;28447;48.682;9.022;2023-08-21T18:23:40;10.35;;;7.55;;
42802;SDS011;28447;48.682;9.022;2023-08-21T18:26:06;9.68;;;8.00;;
42802;SDS011;28447;48.682;9.022;2023-08-21T18:28:32;8.40;;;7.60;;
42802;SDS011;28447;48.682;9.022;2023-08-21T18:30:58;11.60;;;7.78;;
42802;SDS011;28447;48.682;9.022;2023-08-21T18:33:25;12.73;;;7.80;;
42802;SDS011;28447;48.682;9.022;2023-08-21T18:35:51;9.55;;;7.38;;
42802;SDS011;28447;48.682;9.022;2023-08-21T18:38:18;10.88;;;7.80;;
42802;SDS011;28447;48.682;9.022;2023-08-21T18:40:45;8.23;;;7.43;;
42802;SDS011;28447;48.682;9.022;2023-08-21T18:43:11;8.90;;;8.00;;
42802;SDS011;28447;48.682;9.022;2023-08-21T18:45:37;15.10;;;8.18;;
42802;SDS011;28447;48.682;9.022;2023-08-21T18:48:03;9.30;;;8.15;;